SBUA/SJL METAR and TAF weather

Enter ICAO airport designator
Station Type Date Time Source
SBUA METAR 2023/01/29 19:00 UTC NOAA

SBUA 291900Z VRB03KT 9999 FEW012 29/25 Q1008


Station Type Date Time Source
SBUA Decoded METAR 2023/01/29 19:00 UTC NOAA

Sao Gabriel Da Cachoeira, Brazil (SBUA) 00-08S 067-05W
Jan 29, 2023 - 02:00 PM EST / 2023.01.29 1900 UTC
Wind: Variable at 3 MPH (3 KT):0
Visibility: greater than 7 mile(s):0
Sky conditions: mostly clear
Temperature: 84 F (29 C)
Dew Point: 77 F (25 C)
Relative Humidity: 79%
Pressure (altimeter): 29.77 in. Hg (1008 hPa)
ob: SBUA 291900Z VRB03KT 9999 FEW012 29/25 Q1008
cycle: 19

Station Type Date Time Source
SBUA TAF 2015/12/16 12:56 UTC NOAA

SBUA 161000Z 1612/1624 00000KT 8000 BKN008 FEW025TCU TN25/1612Z TX34/ 1618Z
BECMG 1613/1615 32005KT 9999 BKN015
BECMG 1617/1619 06005KT SCT017 FEW025TCU PROB40 1619/1622 4000 TSRA BKN015 FEW025CB
RMK PDZ

Example: see airport list